createdAt,value
2018-05-07T00:02:27.960Z,58.20
2018-05-07T00:04:56.031Z,59.90
2018-05-07T00:07:24.116Z,57.40
2018-05-07T00:09:52.740Z,59.60
2018-05-07T00:12:20.802Z,60.80
2018-05-07T00:14:48.848Z,61.70
2018-05-07T00:17:17.264Z,63.60
2018-05-07T00:19:45.328Z,60.30
2018-05-07T00:22:13.829Z,58.20
2018-05-07T00:24:42.344Z,59.40
2018-05-07T00:27:10.401Z,62.00
2018-05-07T00:29:38.489Z,63.40
2018-05-07T00:32:06.894Z,61.10
2018-05-07T00:34:35.712Z,59.70
2018-05-07T00:37:03.784Z,59.70
2018-05-07T00:39:32.213Z,60.70
2018-05-07T00:42:00.271Z,61.00
2018-05-07T00:44:29.109Z,59.70
2018-05-07T00:46:57.744Z,59.70
2018-05-07T00:49:25.803Z,58.60
2018-05-07T00:51:53.889Z,58.10
2018-05-07T00:54:22.578Z,60.40
2018-05-07T00:56:50.638Z,60.60
2018-05-07T00:59:18.697Z,61.80
2018-05-07T01:01:47.109Z,61.10
2018-05-07T01:04:15.163Z,60.30
2018-05-07T01:06:43.245Z,60.70
2018-05-07T01:09:11.653Z,59.10
2018-05-07T01:11:40.473Z,57.80
2018-05-07T01:14:08.559Z,57.70
2018-05-07T01:16:37.060Z,57.20
2018-05-07T01:19:05.117Z,59.70
2018-05-07T01:21:33.188Z,60.90
2018-05-07T01:24:02.053Z,61.40
2018-05-07T01:26:30.123Z,62.30
2018-05-07T01:28:58.295Z,62.70
2018-05-07T01:31:26.729Z,62.10
2018-05-07T01:33:54.798Z,61.20
2018-05-07T01:36:22.889Z,60.80
2018-05-07T01:38:51.857Z,59.80
2018-05-07T01:41:19.944Z,59.80
2018-05-07T01:43:48.101Z,59.30
2018-05-07T01:46:16.685Z,62.00
2018-05-07T01:48:44.770Z,60.50
2018-05-07T01:51:12.829Z,59.20
2018-05-07T01:53:41.255Z,63.10
2018-05-07T01:56:09.336Z,63.60
2018-05-07T01:58:37.404Z,64.80
2018-05-07T02:01:05.730Z,64.80
2018-05-07T02:03:33.789Z,66.60
2018-05-07T02:06:01.857Z,64.90
2018-05-07T02:08:30.558Z,65.10
2018-05-07T02:10:58.644Z,67.70
2018-05-07T02:13:27.478Z,70.70
2018-05-07T02:15:55.683Z,70.60
2018-05-07T02:18:23.748Z,71.20
2018-05-07T02:20:51.804Z,70.90
2018-05-07T02:23:20.061Z,70.80
2018-05-07T02:25:48.249Z,70.40
2018-05-07T02:28:16.290Z,70.40
2018-05-07T02:30:44.724Z,71.30
2018-05-07T02:33:12.797Z,71.90
2018-05-07T02:35:40.852Z,72.30
2018-05-07T02:38:09.274Z,71.90
2018-05-07T02:40:37.328Z,71.10
2018-05-07T02:43:05.390Z,68.20
2018-05-07T02:45:33.793Z,70.90
2018-05-07T02:48:02.618Z,69.60
2018-05-07T02:50:30.681Z,69.50
2018-05-07T02:52:59.222Z,71.40
2018-05-07T02:55:27.286Z,70.50
2018-05-07T02:57:55.351Z,71.90
2018-05-07T03:00:23.477Z,70.80
2018-05-07T03:02:51.548Z,70.50
2018-05-07T03:05:20.365Z,66.70
2018-05-07T03:07:48.559Z,66.70
2018-05-07T03:10:16.622Z,67.20
2018-05-07T03:12:44.689Z,66.80
2018-05-07T03:15:13.101Z,68.80
2018-05-07T03:17:41.932Z,67.30
2018-05-07T03:20:09.989Z,67.20
2018-05-07T03:22:38.544Z,69.00
2018-05-07T03:25:07.365Z,66.80
2018-05-07T03:27:35.521Z,66.70
2018-05-07T03:30:03.991Z,64.30
2018-05-07T03:32:32.810Z,67.00
2018-05-07T03:35:00.885Z,66.90
2018-05-07T03:37:29.402Z,65.70
2018-05-07T03:39:57.458Z,67.40
2018-05-07T03:42:25.546Z,69.10
2018-05-07T03:44:53.942Z,70.10
2018-05-07T03:47:21.992Z,66.70
2018-05-07T03:49:50.089Z,68.00
2018-05-07T03:52:19.379Z,66.80
2018-05-07T03:54:47.443Z,66.40
2018-05-07T03:57:15.505Z,67.30
2018-05-07T03:59:44.020Z,68.00
2018-05-07T04:02:12.021Z,68.90
2018-05-07T04:04:40.079Z,68.10
2018-05-07T04:07:08.257Z,67.80
2018-05-07T04:09:36.313Z,68.10
2018-05-07T04:12:05.145Z,68.30
2018-05-07T04:14:33.548Z,68.30
2018-05-07T04:17:13.469Z,68.50
2018-05-07T04:19:53.261Z,69.10
2018-05-07T04:22:34.102Z,68.40
2018-05-07T04:25:02.711Z,67.10
2018-05-07T04:27:30.756Z,67.50
2018-05-07T04:29:59.504Z,67.50
2018-05-07T04:32:28.396Z,65.30
2018-05-07T04:34:56.474Z,65.20
2018-05-07T04:37:24.532Z,66.20
2018-05-07T04:39:52.951Z,65.60
2018-05-07T04:42:21.035Z,66.80
2018-05-07T04:44:49.693Z,71.50
2018-05-07T04:47:17.754Z,73.30
2018-05-07T04:49:45.824Z,74.50
2018-05-07T04:52:14.554Z,74.40
2018-05-07T04:54:42.622Z,76.00
2018-05-07T04:57:10.699Z,75.70
2018-05-07T04:59:39.376Z,76.30
2018-05-07T05:02:07.443Z,76.90
2018-05-07T05:04:35.519Z,78.10
2018-05-07T05:07:03.771Z,78.50
2018-05-07T05:09:31.791Z,78.40
2018-05-07T05:11:59.845Z,79.90
2018-05-07T05:14:28.001Z,79.50
2018-05-07T05:16:56.103Z,80.20
2018-05-07T05:19:24.158Z,79.90
2018-05-07T05:21:52.625Z,77.70
2018-05-07T05:24:20.693Z,78.90
2018-05-07T05:26:48.757Z,78.70
2018-05-07T05:29:16.999Z,76.50
2018-05-07T05:31:45.581Z,77.10
2018-05-07T05:34:14.397Z,74.40
2018-05-07T05:36:42.957Z,73.70
2018-05-07T05:39:11.751Z,72.00
2018-05-07T05:41:39.805Z,72.00
2018-05-07T05:44:08.375Z,70.10
2018-05-07T05:46:37.189Z,71.50
2018-05-07T05:49:05.253Z,71.50
2018-05-07T05:51:33.793Z,70.30
2018-05-07T05:54:01.861Z,68.60
2018-05-07T05:56:30.009Z,69.80
2018-05-07T05:58:58.099Z,70.00
2018-05-07T06:01:26.163Z,69.30
2018-05-07T06:03:54.254Z,68.10
2018-05-07T06:06:22.539Z,68.50
2018-05-07T06:08:50.599Z,68.90
2018-05-07T06:11:18.666Z,68.60
2018-05-07T06:13:47.041Z,67.50
2018-05-07T06:16:15.110Z,68.20
2018-05-07T06:18:43.160Z,68.10
2018-05-07T06:21:11.894Z,67.20
2018-05-07T06:23:39.932Z,67.50
2018-05-07T06:26:08.009Z,67.70
2018-05-07T06:28:36.181Z,68.10
2018-05-07T06:31:04.260Z,67.70
2018-05-07T06:33:32.748Z,68.00
2018-05-07T06:36:00.872Z,67.70
2018-05-07T06:38:28.934Z,68.20
2018-05-07T06:40:56.988Z,68.60
2018-05-07T06:43:25.460Z,68.00
2018-05-07T06:45:54.302Z,66.30
2018-05-07T06:48:22.348Z,66.20
2018-05-07T06:50:50.884Z,67.60
2018-05-07T06:53:18.938Z,66.90
2018-05-07T06:55:47.002Z,66.30
2018-05-07T06:58:15.433Z,65.80
2018-05-07T07:00:44.262Z,66.40
2018-05-07T07:03:12.356Z,66.30
2018-05-07T07:05:40.864Z,65.40
2018-05-07T07:08:08.949Z,67.90
2018-05-07T07:10:37.296Z,68.10
2018-05-07T07:13:05.678Z,66.00
2018-05-07T07:15:33.836Z,67.10
2018-05-07T07:18:01.897Z,68.60
2018-05-07T07:20:29.969Z,65.70
2018-05-07T07:22:58.551Z,66.70
2018-05-07T07:25:26.608Z,66.90
2018-05-07T07:27:54.780Z,64.70
2018-05-07T07:30:22.842Z,66.20
2018-05-07T07:32:50.904Z,66.20
2018-05-07T07:35:19.276Z,65.00
2018-05-07T07:37:48.557Z,68.00
2018-05-07T07:40:17.395Z,66.20
2018-05-07T07:42:45.457Z,66.20
2018-05-07T07:45:13.588Z,66.20
2018-05-07T07:47:42.420Z,63.40
2018-05-07T07:50:10.497Z,63.40
2018-05-07T07:52:38.675Z,63.50
2018-05-07T07:55:06.741Z,65.20
2018-05-07T07:57:34.791Z,64.60
2018-05-07T08:00:03.353Z,64.60
2018-05-07T08:02:32.185Z,63.60
2018-05-07T08:05:00.237Z,63.50
2018-05-07T08:07:28.763Z,63.50
2018-05-07T08:09:56.825Z,64.50
2018-05-07T08:12:24.944Z,62.70
2018-05-07T08:14:53.313Z,63.80
2018-05-07T08:17:22.129Z,65.10
2018-05-07T08:19:50.199Z,65.10
2018-05-07T08:22:18.721Z,65.60
2018-05-07T08:24:46.801Z,63.90
2018-05-07T08:27:14.839Z,64.20
2018-05-07T08:29:43.251Z,62.70
2018-05-07T08:32:11.347Z,63.70
2018-05-07T08:34:40.167Z,63.10
2018-05-07T08:37:09.356Z,63.00
2018-05-07T08:39:38.157Z,63.20
2018-05-07T08:42:06.217Z,63.10
2018-05-07T08:44:34.382Z,61.70
2018-05-07T08:47:02.439Z,62.80
2018-05-07T08:49:31.258Z,64.20
2018-05-07T08:51:59.425Z,64.20
2018-05-07T08:54:27.473Z,63.60
2018-05-07T08:56:55.539Z,62.40
2018-05-07T08:59:23.777Z,63.50
2018-05-07T09:01:51.832Z,62.30
2018-05-07T09:04:20.123Z,62.80
2018-05-07T09:06:48.606Z,60.30
2018-05-07T09:09:16.672Z,61.40
2018-05-07T09:11:44.740Z,60.40
2018-05-07T09:14:13.130Z,60.90
2018-05-07T09:16:41.184Z,61.70
2018-05-07T09:19:09.276Z,61.80
2018-05-07T09:21:37.961Z,60.40
2018-05-07T09:24:06.025Z,60.50
2018-05-07T09:26:34.098Z,59.90
2018-05-07T09:29:02.336Z,62.20
2018-05-07T09:31:30.433Z,62.40
2018-05-07T09:33:58.468Z,62.20
2018-05-07T09:36:26.978Z,62.60
2018-05-07T09:38:55.244Z,59.50
2018-05-07T09:41:23.292Z,61.00
2018-05-07T09:43:51.529Z,62.80
2018-05-07T09:46:19.598Z,60.90
2018-05-07T09:48:47.668Z,61.00
2018-05-07T09:51:16.106Z,62.60
2018-05-07T09:53:44.167Z,59.80
2018-05-07T09:56:12.221Z,59.00
2018-05-07T09:59:01.844Z,59.10
2018-05-07T10:01:30.070Z,59.10
2018-05-07T10:06:32.968Z,61.60
2018-05-07T10:09:01.425Z,61.60
2018-05-07T10:11:29.510Z,62.10
2018-05-07T10:13:57.575Z,61.20
2018-05-07T10:16:25.743Z,63.10
2018-05-07T10:18:53.792Z,63.10
2018-05-07T10:21:21.881Z,59.60
2018-05-07T10:23:50.145Z,60.00
2018-05-07T10:26:18.233Z,61.80
2018-05-07T10:28:46.294Z,60.00
2018-05-07T10:31:14.445Z,58.40
2018-05-07T10:33:42.547Z,58.30
2018-05-07T10:36:10.597Z,59.60
2018-05-07T10:38:39.193Z,59.30
2018-05-07T10:41:07.260Z,57.80
2018-05-07T10:43:35.329Z,58.20
2018-05-07T10:48:38.012Z,59.30
2018-05-07T10:51:06.298Z,56.70
2018-05-07T10:53:34.352Z,56.50
2018-05-07T10:56:02.426Z,59.10
2018-05-07T10:58:30.582Z,56.70
2018-05-07T11:00:58.688Z,57.00
2018-05-07T11:03:27.324Z,58.20
2018-05-07T11:05:56.577Z,55.60
2018-05-07T11:08:24.638Z,55.50
2018-05-07T11:10:52.723Z,57.20
2018-05-07T11:13:21.393Z,59.20
2018-05-07T11:15:49.458Z,56.40
2018-05-07T11:18:17.530Z,57.80
2018-05-07T11:20:45.930Z,57.40
2018-05-07T11:23:13.991Z,56.00
2018-05-07T11:25:42.042Z,55.90
2018-05-07T11:28:10.160Z,55.30
2018-05-07T11:30:39.021Z,56.60
2018-05-07T11:33:07.085Z,56.60
2018-05-07T11:35:35.581Z,57.70
2018-05-07T11:38:03.660Z,56.90
2018-05-07T11:40:31.722Z,56.00
2018-05-07T11:43:00.117Z,55.10
2018-05-07T11:45:28.180Z,54.70
2018-05-07T11:47:56.246Z,54.90
2018-05-07T11:50:24.957Z,54.50
2018-05-07T11:52:53.791Z,55.20
2018-05-07T11:55:22.617Z,54.70
2018-05-07T11:57:50.993Z,54.80
2018-05-07T12:00:19.073Z,53.70
2018-05-07T12:02:47.939Z,56.50
2018-05-07T12:05:17.089Z,55.80
2018-05-07T12:07:45.117Z,52.60
2018-05-07T12:10:13.215Z,53.00
2018-05-07T12:12:42.133Z,54.50
2018-05-07T12:15:10.205Z,54.50
2018-05-07T12:17:38.270Z,54.50
2018-05-07T12:20:06.704Z,52.90
2018-05-07T12:22:34.773Z,53.70
2018-05-07T12:25:02.837Z,54.20
2018-05-07T12:27:31.257Z,51.90
2018-05-07T12:29:59.331Z,53.40
2018-05-07T12:32:27.393Z,52.80
2018-05-07T12:34:56.535Z,53.00
2018-05-07T12:37:24.605Z,53.00
2018-05-07T12:39:53.429Z,50.20
2018-05-07T12:42:22.096Z,50.20
2018-05-07T12:44:50.193Z,51.90
2018-05-07T12:47:19.017Z,51.60
2018-05-07T12:49:47.557Z,51.60
2018-05-07T12:52:15.633Z,53.10
2018-05-07T12:54:43.709Z,52.70
2018-05-07T12:57:12.677Z,51.20
2018-05-07T12:59:40.740Z,51.20
2018-05-07T13:02:08.813Z,49.50
2018-05-07T13:04:37.505Z,50.20
2018-05-07T13:07:06.240Z,53.50
2018-05-07T13:09:35.058Z,51.80
2018-05-07T13:12:03.564Z,51.80
2018-05-07T13:14:31.621Z,52.40
2018-05-07T13:16:59.709Z,49.70
2018-05-07T13:19:28.088Z,50.40
2018-05-07T13:21:56.149Z,49.70
2018-05-07T13:26:59.050Z,47.90
2018-05-07T13:29:27.126Z,50.10
2018-05-07T13:31:55.202Z,49.30
2018-05-07T13:34:23.370Z,48.00
2018-05-07T13:36:51.469Z,48.30
2018-05-07T13:39:19.504Z,48.80
2018-05-07T13:41:47.866Z,49.70
2018-05-07T13:44:15.926Z,50.40
2018-05-07T13:46:44.004Z,49.20
2018-05-07T13:49:12.303Z,48.80
2018-05-07T13:51:40.379Z,49.10
2018-05-07T13:54:08.440Z,48.50
2018-05-07T13:56:36.830Z,49.20
2018-05-07T13:59:04.916Z,46.60
2018-05-07T14:01:32.975Z,46.90
2018-05-07T14:04:01.212Z,47.70
2018-05-07T14:06:29.289Z,45.90
2018-05-07T14:08:58.160Z,47.00
2018-05-07T14:11:27.100Z,44.50
2018-05-07T14:13:55.188Z,44.40
2018-05-07T14:16:23.233Z,45.10
2018-05-07T14:18:51.621Z,44.80
2018-05-07T14:21:19.778Z,44.00
2018-05-07T14:23:47.769Z,43.10
2018-05-07T14:26:16.492Z,44.30
2018-05-07T14:28:44.547Z,43.70
2018-05-07T14:31:13.365Z,44.50
2018-05-07T14:33:41.885Z,44.40
2018-05-07T14:36:09.969Z,43.60
2018-05-07T14:38:38.025Z,43.90
2018-05-07T14:41:06.127Z,43.80
2018-05-07T14:43:34.987Z,44.20
2018-05-07T14:46:03.049Z,44.10
2018-05-07T14:48:31.537Z,43.70
2018-05-07T14:50:59.601Z,44.90
2018-05-07T14:53:27.662Z,43.60
2018-05-07T14:55:55.926Z,44.30
2018-05-07T14:58:23.974Z,43.40
2018-05-07T15:00:52.040Z,43.10
2018-05-07T15:03:20.270Z,42.10
2018-05-07T15:05:48.328Z,43.00
2018-05-07T15:08:16.421Z,40.80
2018-05-07T15:10:45.155Z,41.80
2018-05-07T15:13:14.026Z,41.50
2018-05-07T15:15:42.096Z,41.20
2018-05-07T15:18:10.394Z,41.90
2018-05-07T15:20:38.444Z,41.60
2018-05-07T15:23:06.515Z,41.30
2018-05-07T15:25:35.672Z,44.40
2018-05-07T15:28:03.751Z,44.40
2018-05-07T15:30:31.830Z,42.40
2018-05-07T15:33:00.208Z,43.60
2018-05-07T15:35:28.284Z,41.80
2018-05-07T15:37:56.354Z,41.90
2018-05-07T15:40:24.540Z,42.70
2018-05-07T15:42:53.363Z,41.80
2018-05-07T15:45:21.428Z,41.80
2018-05-07T15:47:49.873Z,41.80
2018-05-07T15:50:17.938Z,42.20
2018-05-07T15:52:45.991Z,41.60
2018-05-07T15:55:14.463Z,40.10
2018-05-07T15:57:42.516Z,39.10
2018-05-07T16:00:10.666Z,39.10
2018-05-07T16:02:39.340Z,40.20
2018-05-07T16:05:07.305Z,39.80
2018-05-07T16:07:36.134Z,41.00
2018-05-07T16:10:04.408Z,41.00
2018-05-07T16:12:32.575Z,40.30
2018-05-07T16:15:00.721Z,40.20
2018-05-07T16:17:28.946Z,40.60
2018-05-07T16:19:57.027Z,40.90
2018-05-07T16:22:25.103Z,41.10
2018-05-07T16:24:53.235Z,41.50
2018-05-07T16:27:21.295Z,41.30
2018-05-07T16:29:49.354Z,41.70
2018-05-07T16:32:17.921Z,41.80
2018-05-07T16:34:46.749Z,42.00
2018-05-07T16:37:14.818Z,41.90
2018-05-07T16:39:43.347Z,41.80
2018-05-07T16:42:11.460Z,42.00
2018-05-07T16:44:39.539Z,42.00
2018-05-07T16:47:08.391Z,44.20
2018-05-07T16:49:36.495Z,44.10
2018-05-07T16:52:04.558Z,43.10
2018-05-07T16:54:33.003Z,43.00
2018-05-07T16:57:01.081Z,44.40
2018-05-07T16:59:29.151Z,44.50
2018-05-07T17:01:57.839Z,45.20
2018-05-07T17:04:25.901Z,44.90
2018-05-07T17:06:53.988Z,45.40
2018-05-07T17:09:22.871Z,47.30
2018-05-07T17:11:50.928Z,47.30
2018-05-07T17:14:19.106Z,46.90
2018-05-07T17:16:47.477Z,46.80
2018-05-07T17:19:15.545Z,47.40
2018-05-07T17:21:43.625Z,46.90
2018-05-07T17:24:12.034Z,48.50
2018-05-07T17:26:40.067Z,48.80
2018-05-07T17:29:08.152Z,49.50
2018-05-07T17:31:36.530Z,50.00
2018-05-07T17:34:05.728Z,49.70
2018-05-07T17:36:33.668Z,50.70
2018-05-07T17:39:01.767Z,51.20
2018-05-07T17:41:29.877Z,53.40
2018-05-07T17:47:02.667Z,54.80
2018-05-07T17:49:31.130Z,55.50
2018-05-07T17:51:59.188Z,55.10
2018-05-07T17:54:27.280Z,55.10
2018-05-07T17:56:55.643Z,55.90
2018-05-07T17:59:23.735Z,56.10
2018-05-07T18:01:52.566Z,57.10
2018-05-07T18:04:21.151Z,57.00
2018-05-07T18:06:49.170Z,57.70
2018-05-07T18:09:17.226Z,58.00
2018-05-07T18:11:45.616Z,58.00
2018-05-07T18:14:14.490Z,58.80
2018-05-07T18:16:43.126Z,58.70
2018-05-07T18:19:11.714Z,59.00
2018-05-07T18:21:39.724Z,58.90
2018-05-07T18:24:07.828Z,58.60
2018-05-07T18:26:37.092Z,59.40
2018-05-07T18:29:05.151Z,59.30
2018-05-07T18:31:33.230Z,59.10
2018-05-07T18:34:01.629Z,61.30
2018-05-07T18:36:29.700Z,60.30
2018-05-07T18:38:57.824Z,59.90
2018-05-07T18:41:25.929Z,59.90
2018-05-07T18:43:54.024Z,62.40
2018-05-07T18:46:22.856Z,64.20
2018-05-07T18:48:51.088Z,64.20
2018-05-07T18:51:19.949Z,62.10
2018-05-07T18:53:48.024Z,62.10
2018-05-07T18:56:16.405Z,57.30
2018-05-07T18:58:44.507Z,58.30
2018-05-07T19:01:13.342Z,58.50
2018-05-07T19:03:41.841Z,58.50
2018-05-07T19:06:09.931Z,57.10
2018-05-07T19:08:37.993Z,57.00
2018-05-07T19:11:06.675Z,57.80
2018-05-07T19:13:34.746Z,58.30
2018-05-07T19:16:02.817Z,58.80
2018-05-07T19:18:31.399Z,60.00
2018-05-07T19:20:59.473Z,62.20
2018-05-07T19:23:27.536Z,60.00
2018-05-07T19:25:55.727Z,59.70
2018-05-07T19:28:23.896Z,60.70
2018-05-07T19:30:52.648Z,63.00
2018-05-07T19:33:20.864Z,63.00
2018-05-07T19:35:48.948Z,63.00
2018-05-07T19:38:17.785Z,63.70
2018-05-07T19:40:46.272Z,63.60
2018-05-07T19:43:14.360Z,64.00
2018-05-07T19:45:42.424Z,64.50
2018-05-07T19:48:10.529Z,64.10
2018-05-07T19:50:39.392Z,64.70
2018-05-07T19:53:07.455Z,64.70
2018-05-07T19:55:35.776Z,65.10
2018-05-07T19:58:03.784Z,65.20
2018-05-07T20:00:31.849Z,65.40
2018-05-07T20:03:00.160Z,66.00
2018-05-07T20:05:28.264Z,66.50
2018-05-07T20:07:57.097Z,67.10
2018-05-07T20:10:25.626Z,67.00
2018-05-07T20:12:54.474Z,68.90
2018-05-07T20:15:22.588Z,68.80
2018-05-07T20:17:51.506Z,68.40
2018-05-07T20:20:19.780Z,68.40
2018-05-07T20:22:48.604Z,70.10
2018-05-07T20:25:17.202Z,69.40
2018-05-07T20:27:45.256Z,70.10
2018-05-07T20:30:13.376Z,70.00
2018-05-07T20:32:41.494Z,70.30
2018-05-07T20:35:09.578Z,69.80
2018-05-07T20:37:37.697Z,69.60
2018-05-07T20:40:06.133Z,69.70
2018-05-07T20:42:34.192Z,70.40
2018-05-07T20:45:02.293Z,71.40
2018-05-07T20:47:30.663Z,71.40
2018-05-07T20:49:58.736Z,72.20
2018-05-07T20:52:26.792Z,72.10
2018-05-07T20:54:55.180Z,72.00
2018-05-07T20:57:23.235Z,72.50
2018-05-07T20:59:51.325Z,73.40
2018-05-07T21:02:19.441Z,73.00
2018-05-07T21:04:48.267Z,74.30
2018-05-07T21:07:16.336Z,74.30
2018-05-07T21:09:44.531Z,73.90
2018-05-07T21:12:12.745Z,75.20
2018-05-07T21:14:40.797Z,76.20
2018-05-07T21:17:09.965Z,77.80
2018-05-07T21:19:38.064Z,77.80
2018-05-07T21:22:07.513Z,77.20
2018-05-07T21:24:36.017Z,77.10
2018-05-07T21:27:04.097Z,77.50
2018-05-07T21:29:32.160Z,77.50
2018-05-07T21:32:00.542Z,77.80
2018-05-07T21:34:28.609Z,78.40
2018-05-07T21:36:56.669Z,79.30
2018-05-07T21:39:24.877Z,79.70
2018-05-07T21:41:52.930Z,80.10
2018-05-07T21:44:20.992Z,80.70
2018-05-07T21:46:49.318Z,81.90
2018-05-07T21:49:18.153Z,81.90
2018-05-07T21:51:46.221Z,81.80
2018-05-07T21:54:14.738Z,82.10
2018-05-07T21:56:42.812Z,82.80
2018-05-07T21:59:10.882Z,83.80
2018-05-07T22:01:39.244Z,84.10
2018-05-07T22:04:07.312Z,84.30
2018-05-07T22:06:35.382Z,84.20
2018-05-07T22:09:03.791Z,84.70
2018-05-07T22:11:32.615Z,85.40
2018-05-07T22:14:00.702Z,85.30
2018-05-07T22:16:28.871Z,85.60
2018-05-07T22:18:56.927Z,85.80
2018-05-07T22:21:25.008Z,86.20
2018-05-07T22:23:54.206Z,86.90
2018-05-07T22:26:22.266Z,86.80
2018-05-07T22:28:50.366Z,86.80
2018-05-07T22:31:18.598Z,87.10
2018-05-07T22:33:46.663Z,86.80
2018-05-07T22:36:15.518Z,87.00
2018-05-07T22:38:43.993Z,87.00
2018-05-07T22:41:12.067Z,86.50
2018-05-07T22:43:40.147Z,87.50
2018-05-07T22:46:08.392Z,87.80
2018-05-07T22:48:36.413Z,88.00
2018-05-07T22:51:04.509Z,87.80
2018-05-07T22:53:32.725Z,87.30
2018-05-07T22:56:00.790Z,87.50
2018-05-07T22:58:28.859Z,88.20
2018-05-07T23:00:56.985Z,88.90
2018-05-07T23:03:25.812Z,89.90
2018-05-07T23:05:54.336Z,89.90
2018-05-07T23:08:22.406Z,89.80
2018-05-07T23:10:50.476Z,90.40
2018-05-07T23:13:18.868Z,90.60
2018-05-07T23:15:47.704Z,90.70
2018-05-07T23:18:15.772Z,90.70
2018-05-07T23:20:44.294Z,90.90
2018-05-07T23:23:12.357Z,91.50
2018-05-07T23:25:40.893Z,91.10
2018-05-07T23:28:09.439Z,91.40
2018-05-07T23:30:38.331Z,92.10
2018-05-07T23:33:06.395Z,92.10
2018-05-07T23:35:34.889Z,92.80
2018-05-07T23:38:03.721Z,93.60
2018-05-07T23:40:31.829Z,93.60
2018-05-07T23:43:00.308Z,93.70
2018-05-07T23:45:28.386Z,93.70
2018-05-07T23:47:56.490Z,94.10
2018-05-07T23:50:24.843Z,94.30
2018-05-07T23:52:53.661Z,94.90
2018-05-07T23:55:21.757Z,94.90
2018-05-07T23:57:49.921Z,94.70
